Time;durP1;ratioP1;P1;durP2;ratioP2;P2;SDS_P1;SDS_P2;PMS_P1;PMS_P2;Temp;Humidity;BMP_temperature;BMP_pressure;BME280_temperature;BME280_humidity;BME280_pressure;Samples;Min_cycle;Max_cycle;Signal;HPM_P1;HPM_P2
2021/12/11 00:01:51;;;;;;;65.32;48.92;;;17.90;51.90;;;;;;4920205;28;90557;-72
2021/12/11 00:04:21;;;;;;;66.90;49.15;;;17.90;51.90;;;;;;4920619;28;90861;-70
2021/12/11 00:06:52;;;;;;;66.57;48.97;;;18.00;51.80;;;;;;4912367;28;91566;-71
2021/12/11 00:09:25;;;;;;;66.32;49.47;;;17.90;51.90;;;;;;4922908;28;90980;-70
2021/12/11 00:12:02;;;;;;;65.07;49.17;;;17.90;51.90;;;;;;4919896;28;89502;-71
2021/12/11 00:14:31;;;;;;;66.82;48.95;;;17.90;51.80;;;;;;4932141;28;89814;-73
2021/12/11 00:16:57;;;;;;;65.65;49.05;;;17.90;52.00;;;;;;4919386;28;95030;-71
2021/12/11 00:19:30;;;;;;;68.93;49.35;;;17.90;51.80;;;;;;4924933;28;91495;-71
2021/12/11 00:22:11;;;;;;;66.95;49.42;;;17.90;51.70;;;;;;4856484;28;92126;-70
2021/12/11 00:24:56;;;;;;;65.65;48.80;;;17.90;51.90;;;;;;735139;28;10093977;-71
2021/12/11 00:27:27;;;;;;;66.05;48.83;;;17.90;52.00;;;;;;4945244;28;89964;-71
2021/12/11 00:29:53;;;;;;;67.80;49.13;;;17.90;51.90;;;;;;4945986;28;92382;-71
2021/12/11 00:32:23;;;;;;;67.60;49.17;;;17.80;51.80;;;;;;4939193;28;89885;-72
2021/12/11 00:34:51;;;;;;;66.45;48.85;;;17.80;51.80;;;;;;4941884;28;89202;-72
2021/12/11 00:37:20;;;;;;;66.72;49.38;;;17.80;51.80;;;;;;4940485;28;89972;-72
2021/12/11 00:40:07;;;;;;;67.00;49.13;;;17.80;51.70;;;;;;4944748;28;93693;-73
2021/12/11 00:42:36;;;;;;;66.70;48.95;;;17.80;51.70;;;;;;4944003;28;93651;-72
2021/12/11 00:45:12;;;;;;;67.80;49.15;;;17.80;51.80;;;;;;4940121;28;90621;-73
2021/12/11 00:47:49;;;;;;;67.38;48.95;;;17.80;51.80;;;;;;4931516;28;92075;-73
2021/12/11 00:50:18;;;;;;;65.93;49.15;;;17.80;51.80;;;;;;4936793;28;91245;-72
2021/12/11 00:52:51;;;;;;;68.32;49.30;;;17.80;51.80;;;;;;4946257;28;95679;-72
2021/12/11 00:55:17;;;;;;;66.53;49.13;;;17.70;52.00;;;;;;4931457;28;92604;-72
2021/12/11 00:57:43;;;;;;;67.28;49.33;;;17.80;51.80;;;;;;4952193;28;93241;-72
2021/12/11 01:00:17;;;;;;;68.72;49.03;;;17.70;51.70;;;;;;4942197;28;89323;-71
2021/12/11 01:02:44;;;;;;;70.00;49.38;;;17.70;52.00;;;;;;4941529;28;90682;-71
2021/12/11 01:05:11;;;;;;;69.70;49.42;;;17.70;52.10;;;;;;4937540;28;90783;-72
2021/12/11 01:07:38;;;;;;;68.45;49.40;;;17.70;52.10;;;;;;4937571;28;92156;-71
2021/12/11 01:10:26;;;;;;;68.30;49.25;;;17.70;52.10;;;;;;4944655;28;90117;-72
2021/12/11 01:13:03;;;;;;;67.88;49.38;;;17.60;52.00;;;;;;4949448;28;91174;-72
2021/12/11 01:15:39;;;;;;;69.35;49.13;;;17.70;52.00;;;;;;4944030;28;93419;-71
2021/12/11 01:21:05;;;;;;;66.72;49.17;;;17.60;52.00;;;;;;4943078;28;90206;-71
2021/12/11 01:26:12;;;;;;;67.07;49.05;;;17.60;52.00;;;;;;4941120;28;91182;-71
2021/12/11 01:28:38;;;;;;;65.95;48.95;;;17.60;52.10;;;;;;4944054;28;93492;-72
2021/12/11 01:31:07;;;;;;;68.03;49.05;;;17.60;52.10;;;;;;4934554;28;91098;-71
2021/12/11 01:33:34;;;;;;;66.28;48.95;;;17.60;52.20;;;;;;4942731;28;91990;-72
2021/12/11 01:36:00;;;;;;;67.22;49.33;;;17.60;52.00;;;;;;4940452;28;91576;-72
2021/12/11 01:38:29;;;;;;;67.05;49.40;;;17.60;52.00;;;;;;4938234;28;90397;-72
2021/12/11 01:41:02;;;;;;;67.25;49.05;;;17.60;52.10;;;;;;4933400;28;89707;-72
2021/12/11 01:43:31;;;;;;;69.03;49.33;;;17.50;51.90;;;;;;4933730;28;89483;-72
2021/12/11 01:45:59;;;;;;;68.35;49.45;;;17.60;52.00;;;;;;4934996;28;90954;-71
2021/12/11 01:48:29;;;;;;;67.63;49.35;;;17.50;52.10;;;;;;4935296;28;92528;-70
2021/12/11 01:51:03;;;;;;;69.00;49.30;;;17.50;52.10;;;;;;4939341;28;90162;-71
2021/12/11 01:53:35;;;;;;;67.90;49.35;;;17.50;52.10;;;;;;4945691;28;89977;-72
2021/12/11 01:56:03;;;;;;;;;;;17.50;52.10;;;;;;4939790;28;93935;-73
2021/12/11 01:58:50;;;;;;;67.63;48.85;;;17.50;52.10;;;;;;4943271;28;90642;-71
2021/12/11 02:01:21;;;;;;;68.72;48.97;;;17.50;52.10;;;;;;4931936;28;89972;-72
2021/12/11 02:03:51;;;;;;;69.70;49.25;;;17.50;52.20;;;;;;4931621;28;90397;-72
2021/12/11 02:06:17;;;;;;;69.20;49.45;;;17.50;52.10;;;;;;4940108;28;90507;-73
2021/12/11 02:08:43;;;;;;;68.15;49.35;;;17.50;52.20;;;;;;4942862;28;91302;-72
2021/12/11 02:11:12;;;;;;;67.38;49.05;;;17.50;52.00;;;;;;4944825;28;90079;-72
2021/12/11 02:13:48;;;;;;;67.65;49.05;;;17.50;52.30;;;;;;4940793;28;90333;-71
2021/12/11 02:16:24;;;;;;;67.80;49.05;;;17.50;52.20;;;;;;4948744;28;91954;-72
2021/12/11 02:18:55;;;;;;;69.97;49.20;;;17.50;52.30;;;;;;4950006;28;91307;-71
2021/12/11 02:21:30;;;;;;;68.65;49.50;;;17.40;52.10;;;;;;4945832;28;89800;-72
2021/12/11 02:24:04;;;;;;;67.53;48.97;;;17.40;52.10;;;;;;4929781;28;91602;-72
2021/12/11 02:26:34;;;;;;;68.72;49.10;;;17.40;52.10;;;;;;4942493;28;95146;-71
2021/12/11 02:29:14;;;;;;;68.07;49.03;;;17.40;52.20;;;;;;4940774;28;91691;-71
2021/12/11 02:32:11;;;;;;;68.60;49.05;;;17.40;52.10;;;;;;4933208;28;89883;-72
2021/12/11 02:34:45;;;;;;;68.00;49.10;;;17.40;52.20;;;;;;4944655;28;91390;-72
2021/12/11 02:37:36;;;;;;;68.30;49.33;;;17.40;52.20;;;;;;4940959;28;91769;-72
2021/12/11 02:40:14;;;;;;;67.73;49.17;;;17.40;52.10;;;;;;4949422;28;89501;-72
2021/12/11 02:43:08;;;;;;;68.22;49.33;;;17.40;52.10;;;;;;4945278;28;92452;-72
2021/12/11 02:46:08;;;;;;;70.05;49.40;;;17.40;52.20;;;;;;4929913;28;90804;-73
2021/12/11 02:49:02;;;;;;;68.05;49.08;;;17.40;52.20;;;;;;4950442;28;91549;-73
2021/12/11 02:51:35;;;;;;;69.72;49.38;;;17.40;52.10;;;;;;4937326;28;94445;-72
2021/12/11 02:54:14;;;;;;;70.07;49.50;;;17.30;52.10;;;;;;4944508;28;89948;-72
2021/12/11 02:56:44;;;;;;;69.60;49.17;;;17.30;52.10;;;;;;4935725;28;90255;-72
2021/12/11 02:59:15;;;;;;;68.57;49.08;;;17.30;52.10;;;;;;4948320;28;90096;-71
2021/12/11 03:01:55;;;;;;;70.80;49.25;;;17.30;52.10;;;;;;4921061;28;91583;-72
2021/12/11 03:04:31;;;;;;;69.13;49.15;;;17.30;52.20;;;;;;4936231;28;89899;-72
2021/12/11 03:07:02;;;;;;;71.68;49.45;;;17.30;52.00;;;;;;4946362;28;89659;-72
2021/12/11 03:09:31;;;;;;;69.38;49.20;;;17.30;52.20;;;;;;4949631;28;91557;-72
2021/12/11 03:12:00;;;;;;;71.10;49.35;;;17.30;52.20;;;;;;4938299;28;90352;-72
2021/12/11 03:14:27;;;;;;;70.72;48.95;;;17.30;52.00;;;;;;4947884;28;89562;-72
2021/12/11 03:16:55;;;;;;;68.45;49.15;;;17.30;51.90;;;;;;4940727;28;91193;-72
2021/12/11 03:19:25;;;;;;;69.93;49.50;;;17.20;52.10;;;;;;4939435;28;90931;-73
2021/12/11 03:21:52;;;;;;;69.47;49.13;;;17.20;52.10;;;;;;4946068;28;90741;-72
2021/12/11 03:24:19;;;;;;;73.28;49.00;;;17.20;52.20;;;;;;4932812;28;91338;-74
2021/12/11 03:26:47;;;;;;;68.45;49.10;;;17.20;52.20;;;;;;4930620;28;90184;-73
2021/12/11 03:29:13;;;;;;;70.53;49.25;;;17.20;52.20;;;;;;4955416;28;91222;-73
2021/12/11 03:31:40;;;;;;;68.70;48.97;;;17.20;52.10;;;;;;4941992;28;94729;-73
2021/12/11 03:34:10;;;;;;;71.05;49.25;;;17.20;52.20;;;;;;4951690;28;89234;-71
2021/12/11 03:36:36;;;;;;;68.20;49.05;;;17.10;52.10;;;;;;4960939;28;90629;-73
2021/12/11 03:39:19;;;;;;;69.88;49.03;;;17.10;52.30;;;;;;4951691;28;90414;-72
2021/12/11 03:41:48;;;;;;;68.85;49.25;;;17.10;52.20;;;;;;4931996;28;95467;-72
2021/12/11 03:44:16;;;;;;;67.10;49.05;;;17.10;52.20;;;;;;4939030;28;90235;-73
2021/12/11 03:46:44;;;;;;;67.45;48.92;;;17.10;52.30;;;;;;4937976;28;90412;-73
2021/12/11 03:49:16;;;;;;;68.60;48.75;;;17.10;52.20;;;;;;4944378;28;90394;-72
2021/12/11 03:51:49;;;;;;;67.18;48.55;;;17.10;52.20;;;;;;4935829;28;92431;-72
2021/12/11 03:54:20;;;;;;;66.82;48.88;;;17.10;52.20;;;;;;4945651;28;90470;-72
2021/12/11 03:56:45;;;;;;;68.20;48.95;;;17.10;52.10;;;;;;4946322;28;89973;-73
2021/12/11 03:59:13;;;;;;;65.10;48.58;;;17.10;52.20;;;;;;4937677;28;90221;-73
2021/12/11 04:01:49;;;;;;;66.90;48.97;;;17.10;52.20;;;;;;4938037;28;89983;-72
2021/12/11 04:04:26;;;;;;;67.65;48.80;;;17.10;52.30;;;;;;4945378;28;90379;-73
2021/12/11 04:06:52;;;;;;;67.22;48.53;;;17.10;52.00;;;;;;4932080;28;91706;-72
2021/12/11 04:09:19;;;;;;;68.82;49.00;;;17.00;52.30;;;;;;4935155;28;90756;-72
2021/12/11 04:11:47;;;;;;;65.43;48.33;;;17.00;52.40;;;;;;4947568;28;90796;-72
2021/12/11 04:14:21;;;;;;;67.75;48.85;;;17.00;52.30;;;;;;4946820;28;91354;-74
2021/12/11 04:16:48;;;;;;;66.55;48.83;;;17.00;52.30;;;;;;4939201;28;90656;-73
2021/12/11 04:19:14;;;;;;;67.97;48.75;;;17.00;52.30;;;;;;4933111;28;90155;-73
2021/12/11 04:21:42;;;;;;;65.32;48.58;;;17.00;52.40;;;;;;4939474;28;90880;-72
2021/12/11 04:24:11;;;;;;;65.93;48.58;;;17.00;52.50;;;;;;4895724;28;1169647;-72
2021/12/11 04:26:37;;;;;;;65.68;48.58;;;17.00;52.20;;;;;;4943742;28;90124;-72
2021/12/11 04:29:05;;;;;;;67.60;48.72;;;17.00;52.50;;;;;;4947706;28;90372;-73
2021/12/11 04:31:32;;;;;;;67.13;48.65;;;17.00;52.50;;;;;;4952035;28;91236;-72
2021/12/11 04:34:03;;;;;;;66.32;48.40;;;16.90;52.30;;;;;;4938724;28;92237;-71
2021/12/11 04:36:35;;;;;;;65.03;48.50;;;16.90;52.20;;;;;;4939388;28;91485;-72
2021/12/11 04:39:04;;;;;;;66.68;48.75;;;16.90;52.40;;;;;;4947369;28;90513;-72
2021/12/11 04:41:38;;;;;;;66.30;48.78;;;16.90;52.40;;;;;;4954361;28;90251;-73
2021/12/11 04:44:10;;;;;;;67.35;48.47;;;16.90;52.30;;;;;;4930338;28;91497;-72
2021/12/11 04:46:36;;;;;;;69.25;48.72;;;16.90;52.40;;;;;;4941435;28;91646;-71
2021/12/11 04:49:21;;;;;;;67.15;48.50;;;16.90;52.40;;;;;;4937915;28;90826;-71
2021/12/11 04:52:14;;;;;;;66.60;49.13;;;16.90;52.40;;;;;;4961062;28;91697;-72
2021/12/11 04:57:53;;;;;;;70.38;48.80;;;17.00;52.40;;;;;;4945783;28;92989;-72
2021/12/11 05:00:30;;;;;;;69.10;48.53;;;17.00;52.60;;;;;;4937663;28;91722;-72
2021/12/11 05:05:55;;;;;;;66.90;48.83;;;17.30;52.40;;;;;;4946080;28;90014;-71
2021/12/11 05:10:56;;;;;;;65.63;48.60;;;17.60;52.10;;;;;;4946263;28;91721;-71
2021/12/11 05:13:25;;;;;;;66.38;48.80;;;17.70;51.80;;;;;;4930206;28;90768;-72
2021/12/11 05:15:53;;;;;;;67.47;49.05;;;17.80;51.40;;;;;;4932587;28;90743;-71
2021/12/11 05:18:23;;;;;;;64.65;48.72;;;17.90;51.00;;;;;;4942945;28;89399;-71
2021/12/11 05:20:53;;;;;;;65.95;48.85;;;18.00;51.00;;;;;;4940098;28;93370;-72
2021/12/11 05:23:19;;;;;;;66.18;48.75;;;18.10;51.00;;;;;;4934346;28;91237;-71
2021/12/11 05:25:46;;;;;;;66.18;48.75;;;18.20;50.70;;;;;;4943536;28;90489;-73
2021/12/11 05:28:12;;;;;;;65.40;48.65;;;18.30;50.80;;;;;;4949836;28;89877;-74
2021/12/11 05:30:45;;;;;;;67.53;48.92;;;18.40;50.50;;;;;;4945211;28;91676;-73
2021/12/11 05:33:12;;;;;;;66.80;48.75;;;18.50;50.40;;;;;;4939778;28;90332;-73
2021/12/11 05:35:40;;;;;;;66.30;48.60;;;18.60;50.20;;;;;;4934816;28;90633;-73
2021/12/11 05:38:08;;;;;;;68.10;48.88;;;18.60;50.00;;;;;;4927590;28;90398;-73
2021/12/11 05:40:38;;;;;;;66.18;48.88;;;18.70;49.90;;;;;;4941576;28;93163;-73
2021/12/11 05:43:05;;;;;;;67.18;48.88;;;18.80;49.70;;;;;;4935563;28;90727;-73
2021/12/11 05:45:31;;;;;;;66.35;48.83;;;18.90;49.50;;;;;;4939834;28;91126;-73
2021/12/11 05:47:57;;;;;;;64.80;48.70;;;18.90;49.20;;;;;;4931510;28;91088;-73
2021/12/11 05:50:29;;;;;;;67.05;48.85;;;18.90;49.10;;;;;;4941384;28;92525;-73
2021/12/11 05:52:55;;;;;;;65.45;48.45;;;19.00;49.00;;;;;;4942977;28;90135;-72
2021/12/11 05:55:22;;;;;;;65.25;48.65;;;19.10;48.80;;;;;;4948393;28;90494;-72
2021/12/11 05:57:53;;;;;;;67.50;48.83;;;19.10;48.60;;;;;;4946863;28;89765;-72
2021/12/11 06:00:22;;;;;;;65.87;48.63;;;19.20;48.60;;;;;;4940755;28;91035;-73
2021/12/11 06:02:48;;;;;;;68.05;48.92;;;19.20;48.50;;;;;;4928455;28;92885;-74
2021/12/11 06:05:14;;;;;;;66.00;48.97;;;19.20;48.30;;;;;;4938442;28;90549;-72
2021/12/11 06:07:43;;;;;;;66.80;48.60;;;19.20;48.30;;;;;;4941241;28;91496;-72
2021/12/11 06:10:14;;;;;;;68.57;48.90;;;19.20;48.30;;;;;;4934253;28;97353;-71
2021/12/11 06:12:40;;;;;;;68.70;49.05;;;19.20;48.30;;;;;;4937842;28;90615;-71
2021/12/11 06:15:06;;;;;;;66.35;48.95;;;19.10;48.20;;;;;;4940624;28;92672;-72
2021/12/11 06:17:34;;;;;;;66.63;49.00;;;19.10;48.10;;;;;;4937994;28;91493;-72
2021/12/11 06:20:02;;;;;;;68.53;48.65;;;19.10;48.20;;;;;;4933109;28;92014;-71
2021/12/11 06:22:31;;;;;;;69.10;48.75;;;19.10;48.10;;;;;;4942654;28;91106;-72
2021/12/11 06:25:00;;;;;;;67.78;49.15;;;19.10;48.10;;;;;;4942388;28;91081;-72
2021/12/11 06:27:27;;;;;;;66.95;48.72;;;19.00;48.00;;;;;;4930983;28;91827;-71
2021/12/11 06:29:53;;;;;;;67.55;49.15;;;19.10;48.10;;;;;;4936689;28;89562;-72
2021/12/11 06:32:19;;;;;;;67.82;48.95;;;19.00;48.00;;;;;;4938859;28;90593;-71
2021/12/11 06:34:46;;;;;;;67.00;48.95;;;19.00;48.10;;;;;;4933448;28;90289;-71
2021/12/11 06:37:14;;;;;;;67.15;49.13;;;19.00;48.10;;;;;;4929748;28;91122;-70
2021/12/11 06:39:41;;;;;;;68.68;49.08;;;18.90;48.10;;;;;;4937444;28;93713;-73
2021/12/11 06:42:09;;;;;;;67.43;49.20;;;18.90;48.10;;;;;;4941934;28;92067;-72
2021/12/11 06:44:36;;;;;;;67.68;48.97;;;18.90;48.10;;;;;;4940867;28;90076;-72
2021/12/11 06:47:04;;;;;;;68.07;48.80;;;18.80;48.20;;;;;;4929981;28;90762;-71
2021/12/11 06:49:32;;;;;;;69.60;49.15;;;18.80;48.60;;;;;;4926504;28;92450;-71
2021/12/11 06:51:58;;;;;;;68.13;48.97;;;18.80;48.10;;;;;;4931533;28;91287;-71
2021/12/11 06:54:25;;;;;;;67.53;49.00;;;18.80;48.20;;;;;;4937777;28;89581;-71
2021/12/11 06:56:52;;;;;;;69.22;49.08;;;18.70;48.10;;;;;;4930670;28;90279;-71
2021/12/11 06:59:18;;;;;;;68.63;48.53;;;18.70;48.30;;;;;;4935159;28;89967;-71
2021/12/11 07:01:45;;;;;;;70.53;48.90;;;18.70;48.50;;;;;;4935536;28;91734;-71
2021/12/11 07:04:11;;;;;;;66.72;49.13;;;18.60;48.50;;;;;;4941842;28;94214;-72
2021/12/11 07:06:46;;;;;;;68.70;48.83;;;18.60;48.50;;;;;;4924051;28;90519;-71
2021/12/11 07:09:14;;;;;;;68.47;48.75;;;18.60;49.40;;;;;;4942595;28;91001;-72
2021/12/11 07:11:43;;;;;;;68.03;48.90;;;18.50;48.80;;;;;;4936224;28;92232;-70
2021/12/11 07:14:09;;;;;;;70.57;49.05;;;18.50;49.10;;;;;;4937711;28;89918;-71
2021/12/11 07:16:36;;;;;;;72.10;48.83;;;18.50;49.30;;;;;;4946306;28;89525;-72
2021/12/11 07:19:03;;;;;;;66.85;49.00;;;18.50;49.20;;;;;;4947703;28;90628;-72
2021/12/11 07:21:30;;;;;;;68.07;48.85;;;18.40;49.10;;;;;;4935256;28;95015;-71
2021/12/11 07:23:55;;;;;;;71.65;49.35;;;18.50;49.30;;;;;;4946822;28;89810;-71
2021/12/11 07:26:30;;;;;;;68.00;49.05;;;18.40;49.20;;;;;;4941851;28;92095;-72
2021/12/11 07:28:59;;;;;;;67.63;49.15;;;18.40;49.30;;;;;;4925416;28;91601;-73
2021/12/11 07:31:25;;;;;;;70.97;49.15;;;18.40;49.40;;;;;;4935213;28;91346;-72
2021/12/11 07:33:52;;;;;;;67.35;49.05;;;18.30;49.50;;;;;;4931007;28;90901;-72
2021/12/11 07:36:18;;;;;;;72.93;49.35;;;18.30;49.60;;;;;;4938327;28;90375;-72
2021/12/11 07:38:44;;;;;;;69.45;48.83;;;18.20;49.50;;;;;;4943729;28;90832;-72
2021/12/11 07:41:12;;;;;;;72.40;49.40;;;18.20;49.70;;;;;;4937755;28;90443;-72
2021/12/11 07:43:40;;;;;;;67.65;49.15;;;18.20;49.60;;;;;;4931010;28;90731;-72
2021/12/11 07:46:07;;;;;;;69.97;49.08;;;18.20;49.70;;;;;;4930552;28;91438;-71
2021/12/11 07:48:33;;;;;;;66.85;48.78;;;18.30;49.70;;;;;;4939655;28;89892;-71
2021/12/11 07:50:59;;;;;;;72.53;49.10;;;18.30;49.60;;;;;;4937754;28;96718;-72
2021/12/11 07:53:25;;;;;;;68.18;48.97;;;18.40;49.50;;;;;;4952947;28;89683;-72
2021/12/11 07:55:52;;;;;;;69.32;49.35;;;18.40;49.50;;;;;;4941724;28;90582;-71
2021/12/11 07:58:19;;;;;;;67.90;48.90;;;18.50;49.40;;;;;;4930902;28;93742;-72
2021/12/11 08:00:45;;;;;;;69.60;49.22;;;18.50;49.30;;;;;;4938659;28;91449;-71
2021/12/11 08:03:12;;;;;;;68.00;49.13;;;18.60;49.10;;;;;;4935595;28;89922;-71
2021/12/11 08:05:41;;;;;;;69.63;49.05;;;18.60;49.00;;;;;;4939810;28;90680;-72
2021/12/11 08:08:09;;;;;;;71.28;49.17;;;18.60;49.10;;;;;;4944161;28;92069;-72
2021/12/11 08:10:36;;;;;;;68.55;49.22;;;18.60;48.90;;;;;;4938884;28;90721;-72
2021/12/11 08:13:04;;;;;;;70.53;49.72;;;18.60;48.70;;;;;;4943451;28;90151;-72
2021/12/11 08:15:30;;;;;;;70.05;49.60;;;18.60;48.90;;;;;;4946939;28;93344;-72
2021/12/11 08:17:56;;;;;;;69.60;49.05;;;18.60;48.70;;;;;;4935911;28;91624;-71
2021/12/11 08:20:25;;;;;;;70.85;49.40;;;18.70;48.70;;;;;;4943096;28;95373;-72
2021/12/11 08:22:52;;;;;;;70.32;49.45;;;18.60;48.80;;;;;;4946277;28;89642;-72
2021/12/11 08:25:20;;;;;;;70.22;49.47;;;18.60;48.70;;;;;;4938321;28;89672;-72
2021/12/11 08:27:46;;;;;;;69.50;49.33;;;18.60;48.80;;;;;;4938836;28;89824;-74
2021/12/11 08:30:13;;;;;;;70.13;49.15;;;18.60;48.80;;;;;;4946887;28;91704;-73
2021/12/11 08:32:39;;;;;;;69.93;49.30;;;18.60;48.70;;;;;;4941666;28;88643;-73
2021/12/11 08:35:09;;;;;;;70.28;49.55;;;18.60;48.80;;;;;;4941512;28;90252;-73
2021/12/11 08:37:36;;;;;;;69.32;49.33;;;18.60;48.80;;;;;;4940096;28;92417;-73
2021/12/11 08:40:05;;;;;;;72.63;49.55;;;18.50;48.90;;;;;;4936877;28;91631;-75
2021/12/11 08:42:32;;;;;;;71.40;49.35;;;18.50;48.90;;;;;;4949005;28;95818;-74
2021/12/11 08:45:04;;;;;;;71.35;49.50;;;18.50;48.90;;;;;;4941992;28;90198;-73
2021/12/11 08:47:30;;;;;;;71.40;49.35;;;18.50;49.00;;;;;;4950287;28;89517;-75
2021/12/11 08:49:57;;;;;;;71.65;49.60;;;18.50;49.00;;;;;;4935347;28;90556;-73
2021/12/11 08:52:30;;;;;;;70.68;49.60;;;18.40;49.00;;;;;;4939296;28;92627;-72
2021/12/11 08:54:57;;;;;;;71.65;49.58;;;18.40;49.00;;;;;;4935394;28;90101;-72
2021/12/11 08:57:29;;;;;;;71.60;49.50;;;18.40;49.10;;;;;;4918616;28;90821;-74
2021/12/11 08:59:59;;;;;;;83.05;49.95;;;18.40;49.70;;;;;;4938421;28;90765;-74
2021/12/11 09:02:38;;;;;;;73.78;49.95;;;18.40;49.70;;;;;;4942867;28;90403;-74
2021/12/11 09:05:12;;;;;;;73.40;49.95;;;18.40;49.90;;;;;;4926989;28;91041;-74
2021/12/11 09:07:45;;;;;;;74.28;50.08;;;18.50;50.40;;;;;;4933548;28;94857;-73
2021/12/11 09:10:43;;;;;;;74.85;50.00;;;18.60;51.20;;;;;;4933998;28;91831;-74
2021/12/11 09:13:18;;;;;;;74.57;50.33;;;18.60;50.70;;;;;;4942515;28;92009;-74
2021/12/11 09:16:00;;;;;;;79.75;50.67;;;18.60;50.80;;;;;;4938084;28;92210;-74
2021/12/11 09:18:36;;;;;;;74.55;50.55;;;18.70;50.80;;;;;;4932808;28;92013;-74
2021/12/11 09:21:13;;;;;;;76.82;50.55;;;18.70;50.60;;;;;;4932581;28;92263;-74
2021/12/11 09:23:44;;;;;;;79.53;50.35;;;18.70;50.40;;;;;;4936107;28;89823;-74
2021/12/11 09:26:20;;;;;;;80.10;50.83;;;18.80;50.30;;;;;;4938295;28;89592;-74
2021/12/11 09:29:00;;;;;;;79.80;50.40;;;18.80;50.30;;;;;;4929484;28;90946;-74
2021/12/11 09:31:32;;;;;;;78.93;50.58;;;18.80;50.10;;;;;;4923385;28;96214;-74
2021/12/11 09:34:00;;;;;;;;;;;18.80;50.00;;;;;;4933449;28;91009;-74
2021/12/11 09:36:31;;;;;;;79.95;50.20;;;18.80;50.00;;;;;;4935447;28;89839;-74
2021/12/11 09:39:04;;;;;;;;;;;18.70;49.80;;;;;;4931618;28;91007;-74
2021/12/11 09:41:30;;;;;;;77.28;50.10;;;18.80;49.70;;;;;;4940275;28;92107;-74
2021/12/11 09:44:16;;;;;;;75.95;50.63;;;18.80;49.60;;;;;;4938659;28;89759;-74
2021/12/11 09:47:09;;;;;;;80.35;50.58;;;18.80;49.50;;;;;;4939816;28;91478;-74
2021/12/11 09:49:43;;;;;;;77.07;50.53;;;18.80;49.40;;;;;;4941381;28;101038;-74
2021/12/11 09:52:17;;;;;;;77.28;50.55;;;18.80;49.50;;;;;;4937699;28;90086;-75
2021/12/11 09:54:46;;;;;;;84.15;50.72;;;18.80;49.70;;;;;;4933084;28;90519;-74
2021/12/11 09:57:14;;;;;;;79.65;51.03;;;18.70;49.60;;;;;;4927553;28;91753;-73
2021/12/11 09:59:42;;;;;;;81.90;50.85;;;18.70;49.80;;;;;;4937783;28;90864;-74
2021/12/11 10:02:27;;;;;;;76.82;50.63;;;18.70;50.20;;;;;;4923032;28;93028;-73
2021/12/11 10:04:58;;;;;;;78.95;50.60;;;18.70;49.80;;;;;;4943237;28;90458;-73
2021/12/11 10:07:33;;;;;;;79.93;51.08;;;18.70;49.80;;;;;;4939004;28;90977;-74
2021/12/11 10:10:21;;;;;;;80.63;51.10;;;18.80;49.70;;;;;;4934381;28;91013;-74
2021/12/11 10:12:54;;;;;;;79.05;51.08;;;18.80;49.60;;;;;;4930783;28;90350;-74
2021/12/11 10:15:20;;;;;;;79.07;50.63;;;18.80;49.70;;;;;;4937029;28;92303;-74
2021/12/11 10:17:53;;;;;;;79.60;50.95;;;18.80;49.50;;;;;;4939714;28;90233;-74
2021/12/11 10:20:31;;;;;;;78.93;50.95;;;18.80;49.50;;;;;;4930972;28;92436;-74
2021/12/11 10:23:00;;;;;;;77.32;50.92;;;18.90;49.50;;;;;;4937073;28;91378;-74
2021/12/11 10:25:30;;;;;;;83.18;51.55;;;18.90;49.30;;;;;;4935530;28;90494;-74
2021/12/11 10:28:02;;;;;;;79.22;51.13;;;19.00;49.40;;;;;;4946287;28;90601;-74
2021/12/11 10:30:30;;;;;;;80.80;51.10;;;18.90;49.20;;;;;;4959701;28;91321;-74
2021/12/11 10:32:56;;;;;;;79.43;51.22;;;18.90;49.20;;;;;;4938065;28;90494;-74
2021/12/11 10:35:32;;;;;;;79.00;51.00;;;19.00;49.20;;;;;;4939987;28;89583;-74
2021/12/11 10:38:00;;;;;;;80.28;51.38;;;19.00;49.20;;;;;;4942238;28;91984;-74
2021/12/11 10:40:35;;;;;;;77.90;50.78;;;19.00;49.20;;;;;;4944883;28;90928;-74
2021/12/11 10:43:13;;;;;;;77.63;50.97;;;19.00;49.20;;;;;;4938643;28;90913;-74
2021/12/11 10:45:39;;;;;;;78.07;51.17;;;18.90;49.20;;;;;;4948230;28;90393;-74
2021/12/11 10:48:09;;;;;;;78.45;51.15;;;18.90;49.20;;;;;;4935064;28;91185;-74
2021/12/11 10:50:43;;;;;;;76.15;51.13;;;18.90;49.20;;;;;;4936225;28;90798;-73
2021/12/11 10:53:12;;;;;;;78.95;51.08;;;18.90;49.30;;;;;;4926688;28;92090;-74
2021/12/11 10:55:39;;;;;;;79.68;51.03;;;18.90;49.20;;;;;;4935673;28;91026;-75
2021/12/11 10:58:09;;;;;;;77.35;51.25;;;18.90;49.30;;;;;;4936614;28;89906;-75
2021/12/11 11:00:43;;;;;;;77.68;51.25;;;18.90;49.10;;;;;;4938316;28;92698;-76
2021/12/11 11:03:09;;;;;;;79.22;51.50;;;18.90;49.10;;;;;;4929742;28;93148;-73
2021/12/11 11:05:36;;;;;;;78.75;51.75;;;18.90;49.20;;;;;;4912420;28;91691;-74
2021/12/11 11:08:06;;;;;;;79.43;51.38;;;18.90;49.40;;;;;;4933607;28;90779;-74
2021/12/11 11:10:35;;;;;;;81.90;51.33;;;18.80;49.50;;;;;;4938585;28;91291;-73
2021/12/11 11:13:05;;;;;;;77.70;51.30;;;18.80;49.60;;;;;;4936970;28;90671;-74
2021/12/11 11:15:35;;;;;;;80.05;51.88;;;18.80;49.50;;;;;;4949165;28;90626;-73
2021/12/11 11:18:01;;;;;;;85.75;51.97;;;18.80;49.50;;;;;;4942242;28;90270;-73
2021/12/11 11:20:34;;;;;;;83.13;52.10;;;18.80;49.70;;;;;;4930489;28;91229;-73
2021/12/11 11:23:02;;;;;;;80.93;51.80;;;18.70;49.80;;;;;;4940550;28;92563;-74
2021/12/11 11:25:31;;;;;;;86.82;52.35;;;18.70;50.30;;;;;;4937566;28;90283;-73
2021/12/11 11:28:04;;;;;;;80.70;51.45;;;18.70;50.90;;;;;;4935979;28;90177;-74
2021/12/11 11:30:36;;;;;;;80.53;52.15;;;18.70;50.80;;;;;;4929995;28;91999;-73
2021/12/11 11:33:03;;;;;;;;;;;18.70;50.80;;;;;;4924608;28;92003;-72
2021/12/11 11:35:32;;;;;;;86.10;51.25;;;18.70;50.80;;;;;;4936803;28;90330;-73
2021/12/11 11:37:59;;;;;;;79.90;51.83;;;18.70;51.20;;;;;;4937725;28;91713;-73
2021/12/11 11:40:29;;;;;;;80.68;51.83;;;18.70;51.20;;;;;;4935336;28;91802;-73
2021/12/11 11:42:57;;;;;;;84.47;51.63;;;18.70;51.10;;;;;;4937281;28;92595;-73
2021/12/11 11:45:24;;;;;;;85.82;52.05;;;18.70;51.20;;;;;;4936998;28;91222;-73
2021/12/11 11:47:50;;;;;;;87.32;52.72;;;18.70;51.40;;;;;;4935383;28;90580;-72
2021/12/11 11:50:20;;;;;;;85.80;52.20;;;18.80;51.70;;;;;;4919866;28;90151;-72
2021/12/11 11:52:46;;;;;;;82.15;52.08;;;18.90;52.60;;;;;;4926069;28;92907;-73
2021/12/11 11:55:16;;;;;;;89.13;52.15;;;18.90;52.70;;;;;;4927174;28;90495;-72
2021/12/11 11:57:47;;;;;;;87.05;52.03;;;19.00;52.20;;;;;;4934446;28;91411;-73
2021/12/11 12:00:25;;;;;;;83.90;52.00;;;19.10;52.00;;;;;;4937383;28;91547;-73
2021/12/11 12:02:52;;;;;;;82.00;51.75;;;19.20;52.60;;;;;;4928445;28;92886;-75
2021/12/11 12:05:19;;;;;;;83.55;51.83;;;19.20;52.50;;;;;;4938219;28;91440;-75
2021/12/11 12:07:46;;;;;;;83.55;52.30;;;19.20;52.50;;;;;;4927236;28;92014;-75
2021/12/11 12:10:16;;;;;;;79.10;52.03;;;19.30;52.30;;;;;;4933878;28;92124;-74
2021/12/11 12:12:42;;;;;;;80.30;51.78;;;19.30;52.20;;;;;;4927125;28;99502;-75
2021/12/11 12:15:18;;;;;;;86.38;51.88;;;19.30;51.70;;;;;;4926747;28;96530;-74
2021/12/11 12:17:44;;;;;;;84.53;52.42;;;19.30;51.80;;;;;;4932716;28;91617;-74
2021/12/11 12:20:14;;;;;;;84.53;51.97;;;19.30;52.20;;;;;;4926973;28;91525;-73
2021/12/11 12:22:42;;;;;;;79.70;51.45;;;19.40;52.10;;;;;;4951473;28;92638;-74
2021/12/11 12:25:08;;;;;;;78.05;51.55;;;19.40;52.60;;;;;;4936980;28;93880;-74
2021/12/11 12:27:36;;;;;;;85.00;52.03;;;19.40;52.60;;;;;;4933586;28;91583;-73
2021/12/11 12:30:09;;;;;;;85.22;51.78;;;19.40;52.30;;;;;;4928998;28;90853;-75
2021/12/11 12:32:36;;;;;;;84.63;51.83;;;19.40;52.50;;;;;;4929571;28;90641;-74
2021/12/11 12:35:08;;;;;;;84.07;51.50;;;19.40;52.60;;;;;;4936198;28;90593;-74
2021/12/11 12:37:33;;;;;;;;;;;19.40;52.60;;;;;;4939087;28;91138;-75
2021/12/11 12:40:03;;;;;;;87.13;51.80;;;19.30;52.50;;;;;;4936744;28;94366;-74
2021/12/11 12:42:36;;;;;;;84.85;51.97;;;19.40;52.50;;;;;;4935112;28;90685;-74
2021/12/11 12:45:25;;;;;;;83.75;51.83;;;19.30;52.20;;;;;;4926766;28;90096;-74
2021/12/11 12:47:56;;;;;;;85.65;51.67;;;19.30;52.60;;;;;;4928032;28;90128;-74
2021/12/11 12:50:28;;;;;;;86.03;52.17;;;19.30;53.00;;;;;;4925534;28;92168;-75
2021/12/11 12:52:54;;;;;;;85.93;52.13;;;19.30;53.00;;;;;;4936863;28;91373;-74
2021/12/11 12:55:29;;;;;;;95.13;53.80;;;19.20;53.10;;;;;;4930344;28;92477;-73
2021/12/11 12:58:00;;;;;;;90.72;53.40;;;19.20;53.80;;;;;;4928433;28;93690;-75
2021/12/11 13:00:31;;;;;;;84.10;52.87;;;19.20;54.20;;;;;;4934496;28;90534;-74